createdAt,value
2023-03-16T00:02:24.544Z,101338.00
2023-03-16T00:04:51.222Z,101334.53
2023-03-16T00:07:18.193Z,101338.16
2023-03-16T00:09:44.905Z,101342.88
2023-03-16T00:12:16.818Z,101336.03
2023-03-16T00:14:44.724Z,101335.06
2023-03-16T00:17:18.907Z,101330.84
2023-03-16T00:19:54.984Z,101337.91
2023-03-16T00:22:23.613Z,101333.53
2023-03-16T00:24:50.253Z,101336.91
2023-03-16T00:27:17.357Z,101339.56
2023-03-16T00:29:48.415Z,101334.22
2023-03-16T00:32:17.322Z,101332.31
2023-03-16T00:34:47.871Z,101328.63
2023-03-16T00:37:16.754Z,101329.56
2023-03-16T00:39:44.119Z,101331.28
2023-03-16T00:42:12.031Z,101339.88
2023-03-16T00:44:39.134Z,101341.00
2023-03-16T00:47:09.048Z,101340.06
2023-03-16T00:49:36.495Z,101341.47
2023-03-16T00:52:05.060Z,101334.47
2023-03-16T00:54:32.753Z,101353.34
2023-03-16T00:57:00.326Z,101339.31
2023-03-16T00:59:27.656Z,101349.78
2023-03-16T01:01:54.908Z,101348.84
2023-03-16T01:04:22.152Z,101346.13
2023-03-16T01:06:49.475Z,101343.34
2023-03-16T01:09:16.155Z,101356.97
2023-03-16T01:11:43.254Z,101357.66
2023-03-16T01:14:10.562Z,101349.56
2023-03-16T01:16:37.367Z,101352.47
2023-03-16T01:19:04.070Z,101359.97
2023-03-16T01:21:33.349Z,101359.97
2023-03-16T01:24:00.010Z,101357.16
2023-03-16T01:26:26.765Z,101357.06
2023-03-16T01:28:54.558Z,101356.00
2023-03-16T01:31:22.004Z,101358.56
2023-03-16T01:33:48.694Z,101354.09
2023-03-16T01:36:17.480Z,101354.19
2023-03-16T01:38:45.290Z,101359.22
2023-03-16T01:41:11.957Z,101358.28
2023-03-16T01:43:39.856Z,101357.34
2023-03-16T01:46:06.474Z,101357.97
2023-03-16T01:48:37.480Z,101348.50
2023-03-16T01:51:14.062Z,101354.22
2023-03-16T01:53:41.965Z,101351.59
2023-03-16T01:56:10.557Z,101350.03
2023-03-16T01:58:37.491Z,101362.19
2023-03-16T02:01:04.809Z,101357.69
2023-03-16T02:03:35.647Z,101360.28
2023-03-16T02:06:08.287Z,101364.59
2023-03-16T02:08:36.580Z,101354.00
2023-03-16T02:11:04.797Z,101359.84
2023-03-16T02:13:34.033Z,101356.16
2023-03-16T02:16:00.885Z,101354.41
2023-03-16T02:18:28.732Z,101351.13
2023-03-16T02:21:12.344Z,101356.50
2023-03-16T02:23:39.145Z,101350.59
2023-03-16T02:26:15.540Z,101347.84
2023-03-16T02:28:50.110Z,101349.50
2023-03-16T02:31:17.490Z,101352.06
2023-03-16T02:33:45.342Z,101350.31
2023-03-16T02:36:14.649Z,101348.66
2023-03-16T02:38:41.600Z,101350.44
2023-03-16T02:41:16.098Z,101356.63
2023-03-16T02:43:48.145Z,101352.03
2023-03-16T02:46:15.142Z,101344.03
2023-03-16T02:48:49.217Z,101355.38
2023-03-16T02:51:15.910Z,101352.06
2023-03-16T02:53:42.685Z,101351.97
2023-03-16T02:56:09.438Z,101355.28
2023-03-16T02:58:36.059Z,101355.22
2023-03-16T03:01:03.702Z,101355.97
2023-03-16T03:03:30.433Z,101364.50
2023-03-16T03:05:57.161Z,101363.69
2023-03-16T03:08:23.897Z,101370.47
2023-03-16T03:10:50.675Z,101371.22
2023-03-16T03:13:17.360Z,101377.16
2023-03-16T03:15:44.072Z,101373.63
2023-03-16T03:18:10.912Z,101377.72
2023-03-16T03:20:37.604Z,101386.28
2023-03-16T03:23:05.468Z,101391.47
2023-03-16T03:25:34.942Z,101390.53
2023-03-16T03:28:04.790Z,101391.19
2023-03-16T03:30:32.487Z,101390.31
2023-03-16T03:32:59.614Z,101396.38
2023-03-16T03:35:26.346Z,101394.59
2023-03-16T03:37:53.214Z,101398.81
2023-03-16T03:40:20.573Z,101400.47
2023-03-16T03:42:47.482Z,101405.75
2023-03-16T03:45:15.269Z,101398.75
2023-03-16T03:47:43.200Z,101408.28
2023-03-16T03:50:11.390Z,101407.41
2023-03-16T03:52:37.998Z,101408.09
2023-03-16T03:55:05.936Z,101401.69
2023-03-16T03:57:33.006Z,101409.16
2023-03-16T03:59:59.668Z,101404.75
2023-03-16T04:02:26.401Z,101406.88
2023-03-16T04:04:53.147Z,101398.22
2023-03-16T04:07:19.848Z,101401.59
2023-03-16T04:09:46.577Z,101402.28
2023-03-16T04:12:13.217Z,101398.81
2023-03-16T04:14:39.943Z,101393.50
2023-03-16T04:17:07.446Z,101394.41
2023-03-16T04:19:34.085Z,101397.72
2023-03-16T04:22:00.800Z,101395.97
2023-03-16T04:24:27.503Z,101398.47
2023-03-16T04:26:54.356Z,101405.47
2023-03-16T04:29:21.241Z,101404.53
2023-03-16T04:31:47.901Z,101407.88
2023-03-16T04:34:14.572Z,101401.81
2023-03-16T04:36:42.144Z,101399.78
2023-03-16T04:39:09.829Z,101396.38
2023-03-16T04:41:36.639Z,101408.19
2023-03-16T04:44:04.684Z,101401.25
2023-03-16T04:46:31.411Z,101415.06
2023-03-16T04:48:58.456Z,101415.94
2023-03-16T04:51:26.150Z,101419.28
2023-03-16T04:53:52.826Z,101413.09
2023-03-16T04:56:19.907Z,101417.81
2023-03-16T04:58:50.766Z,101418.69
2023-03-16T05:01:18.380Z,101420.47
2023-03-16T05:03:45.170Z,101424.00
2023-03-16T05:06:12.337Z,101418.81
2023-03-16T05:08:38.941Z,101418.81
2023-03-16T05:11:05.732Z,101430.03
2023-03-16T05:13:32.644Z,101427.47
2023-03-16T05:15:59.297Z,101429.38
2023-03-16T05:18:25.980Z,101428.41
2023-03-16T05:20:54.108Z,101430.88
2023-03-16T05:23:20.940Z,101429.03
2023-03-16T05:25:48.089Z,101436.69
2023-03-16T05:28:15.089Z,101437.44
2023-03-16T05:30:42.465Z,101435.69
2023-03-16T05:33:09.637Z,101439.97
2023-03-16T05:35:36.529Z,101444.63
2023-03-16T05:38:03.246Z,101448.66
2023-03-16T05:40:30.168Z,101443.38
2023-03-16T05:42:57.806Z,101447.66
2023-03-16T05:45:24.793Z,101458.06
2023-03-16T05:47:51.826Z,101448.75
2023-03-16T05:50:18.490Z,101452.78
2023-03-16T05:52:45.636Z,101454.09
2023-03-16T05:55:14.932Z,101462.25
2023-03-16T05:57:42.044Z,101461.19
2023-03-16T06:00:15.581Z,101455.34
2023-03-16T06:02:43.378Z,101468.41
2023-03-16T06:05:11.157Z,101466.50
2023-03-16T06:07:37.889Z,101476.41
2023-03-16T06:10:05.897Z,101466.50
2023-03-16T06:12:34.552Z,101471.69
2023-03-16T06:15:01.729Z,101477.56
2023-03-16T06:17:28.388Z,101475.00
2023-03-16T06:19:55.076Z,101477.63
2023-03-16T06:22:21.874Z,101476.91
2023-03-16T06:24:48.771Z,101485.63
2023-03-16T06:27:15.445Z,101486.75
2023-03-16T06:29:42.091Z,101488.75
2023-03-16T06:32:08.736Z,101482.06
2023-03-16T06:34:38.153Z,101485.94
2023-03-16T06:37:05.121Z,101489.66
2023-03-16T06:39:31.798Z,101495.81
2023-03-16T06:41:58.443Z,101503.81
2023-03-16T06:44:25.269Z,101510.06
2023-03-16T06:46:51.958Z,101510.34
2023-03-16T06:49:18.523Z,101520.09
2023-03-16T06:51:45.164Z,101528.06
2023-03-16T06:57:00.264Z,101520.59
2023-03-16T06:59:27.081Z,101532.00
2023-03-16T07:01:53.805Z,101522.81
2023-03-16T07:04:20.557Z,101520.44
2023-03-16T07:06:47.219Z,101520.78
2023-03-16T07:09:13.968Z,101521.13
2023-03-16T07:11:40.970Z,101526.56
2023-03-16T07:14:07.633Z,101530.34
2023-03-16T07:16:34.367Z,101539.50
2023-03-16T07:19:01.716Z,101537.69
2023-03-16T07:21:28.366Z,101540.28
2023-03-16T07:23:56.897Z,101553.47
2023-03-16T07:26:23.552Z,101547.50
2023-03-16T07:28:50.182Z,101551.53
2023-03-16T07:31:16.965Z,101546.28
2023-03-16T07:33:43.632Z,101555.78
2023-03-16T07:36:10.783Z,101548.56
2023-03-16T07:38:37.642Z,101553.47
2023-03-16T07:41:05.017Z,101563.78
2023-03-16T07:43:31.693Z,101558.25
2023-03-16T07:45:58.378Z,101550.81
2023-03-16T07:48:25.106Z,101567.72
2023-03-16T07:50:51.802Z,101554.16
2023-03-16T07:53:18.478Z,101553.63
2023-03-16T07:55:45.200Z,101554.66
2023-03-16T07:58:14.826Z,101547.19
2023-03-16T08:00:42.543Z,101554.56
2023-03-16T08:03:09.281Z,101555.53
2023-03-16T08:05:36.045Z,101548.06
2023-03-16T08:08:02.662Z,101545.91
2023-03-16T08:10:29.887Z,101552.88
2023-03-16T08:12:56.846Z,101545.25
2023-03-16T08:15:24.967Z,101544.41
2023-03-16T08:17:52.478Z,101548.94
2023-03-16T08:20:19.154Z,101543.94
2023-03-16T08:22:46.707Z,101546.13
2023-03-16T08:25:14.372Z,101550.00
2023-03-16T08:27:43.055Z,101553.31
2023-03-16T08:30:13.469Z,101558.66
2023-03-16T08:32:41.148Z,101556.97
2023-03-16T08:35:14.039Z,101567.63
2023-03-16T08:37:41.566Z,101568.03
2023-03-16T08:40:15.829Z,101568.03
2023-03-16T08:42:43.115Z,101574.47
2023-03-16T08:45:13.577Z,101585.03
2023-03-16T08:47:40.758Z,101572.94
2023-03-16T08:50:09.086Z,101585.31
2023-03-16T08:52:36.648Z,101590.06
2023-03-16T08:55:07.658Z,101589.19
2023-03-16T08:57:34.501Z,101576.91
2023-03-16T09:00:01.481Z,101588.97
2023-03-16T09:02:28.192Z,101588.13
2023-03-16T09:04:56.255Z,101597.75
2023-03-16T09:07:23.091Z,101592.03
2023-03-16T09:09:50.887Z,101589.78
2023-03-16T09:12:17.584Z,101582.59
2023-03-16T09:14:46.008Z,101589.13
2023-03-16T09:17:12.862Z,101596.81
2023-03-16T09:19:51.210Z,101596.44
2023-03-16T09:22:20.124Z,101590.16
2023-03-16T09:24:47.416Z,101589.69
2023-03-16T09:27:15.431Z,101582.94
2023-03-16T09:29:42.726Z,101583.56
2023-03-16T09:32:09.734Z,101588.34
2023-03-16T09:34:36.368Z,101585.38
2023-03-16T09:37:03.069Z,101595.22
2023-03-16T09:39:30.006Z,101593.69
2023-03-16T09:42:07.695Z,101582.66
2023-03-16T09:44:44.370Z,101584.53
2023-03-16T09:47:12.407Z,101585.63
2023-03-16T09:49:49.359Z,101589.28
2023-03-16T09:52:46.414Z,101592.09
2023-03-16T09:55:28.655Z,101586.16
2023-03-16T09:57:56.092Z,101589.72
2023-03-16T10:00:26.375Z,101597.63
2023-03-16T10:03:21.802Z,101595.06
2023-03-16T10:05:52.358Z,101593.41
2023-03-16T10:08:35.341Z,101594.41
2023-03-16T10:11:33.127Z,101589.25
2023-03-16T10:14:05.066Z,101585.78
2023-03-16T10:16:38.700Z,101585.63
2023-03-16T10:19:23.288Z,101580.44
2023-03-16T10:21:50.546Z,101585.75
2023-03-16T10:24:41.705Z,101577.00
2023-03-16T10:27:16.881Z,101577.91
2023-03-16T10:29:43.592Z,101578.78
2023-03-16T10:32:16.638Z,101573.50
2023-03-16T10:34:56.626Z,101570.00
2023-03-16T10:37:24.302Z,101574.34
2023-03-16T10:39:50.940Z,101561.22
2023-03-16T10:42:20.125Z,101562.97
2023-03-16T10:44:47.339Z,101571.72
2023-03-16T10:47:18.592Z,101558.56
2023-03-16T10:49:49.136Z,101559.44
2023-03-16T10:52:39.936Z,101561.19
2023-03-16T10:55:21.573Z,101562.91
2023-03-16T10:57:51.277Z,101555.06
2023-03-16T11:00:31.097Z,101554.16
2023-03-16T11:02:59.843Z,101556.81
2023-03-16T11:05:31.102Z,101562.06
2023-03-16T11:08:02.909Z,101550.59
2023-03-16T11:10:40.543Z,101554.94
2023-03-16T11:13:18.456Z,101552.25
2023-03-16T11:15:56.052Z,101548.72
2023-03-16T11:18:46.434Z,101547.03
2023-03-16T11:21:17.311Z,101553.13
2023-03-16T11:23:49.779Z,101544.31
2023-03-16T11:26:32.409Z,101536.34
2023-03-16T11:29:09.315Z,101531.94
2023-03-16T11:31:46.090Z,101535.47
2023-03-16T11:34:18.008Z,101543.38
2023-03-16T11:36:55.945Z,101544.25
2023-03-16T11:39:52.703Z,101535.50
2023-03-16T11:42:27.949Z,101534.59
2023-03-16T11:45:17.647Z,101532.84
2023-03-16T11:47:57.522Z,101531.94
2023-03-16T11:50:34.246Z,101531.03
2023-03-16T11:53:11.351Z,101526.59
2023-03-16T11:55:50.138Z,101521.25
2023-03-16T11:58:32.559Z,101523.91
2023-03-16T12:01:15.982Z,101525.53
2023-03-16T12:03:54.012Z,101516.94
2023-03-16T12:06:27.525Z,101521.38
2023-03-16T12:09:18.194Z,101512.50
2023-03-16T12:11:57.937Z,101516.94
2023-03-16T12:14:27.030Z,101515.16
2023-03-16T12:17:04.865Z,101503.59
2023-03-16T12:19:43.635Z,101504.53
2023-03-16T12:22:18.562Z,101501.13
2023-03-16T12:24:49.938Z,101493.22
2023-03-16T12:27:20.540Z,101481.72
2023-03-16T12:30:05.538Z,101482.56
2023-03-16T12:33:22.956Z,101486.97
2023-03-16T12:36:02.620Z,101486.03
2023-03-16T12:38:54.043Z,101480.72
2023-03-16T12:41:57.972Z,101492.16
2023-03-16T12:44:47.625Z,101485.13
2023-03-16T12:47:31.982Z,101480.81
2023-03-16T12:50:11.282Z,101475.91
2023-03-16T12:52:45.631Z,101468.81
2023-03-16T12:55:15.863Z,101471.50
2023-03-16T12:57:43.697Z,101471.34
2023-03-16T13:00:12.241Z,101466.94
2023-03-16T13:02:44.269Z,101463.31
2023-03-16T13:05:15.126Z,101468.59
2023-03-16T13:07:52.602Z,101462.41
2023-03-16T13:10:20.923Z,101454.41
2023-03-16T13:12:48.027Z,101454.44
2023-03-16T13:15:17.769Z,101445.66
2023-03-16T13:17:44.446Z,101444.78
2023-03-16T13:20:29.348Z,101436.88
2023-03-16T13:23:30.241Z,101450.06
2023-03-16T13:26:15.339Z,101441.28
2023-03-16T13:28:45.308Z,101446.56
2023-03-16T13:31:25.638Z,101443.06
2023-03-16T13:33:56.971Z,101444.25
2023-03-16T13:36:25.747Z,101447.72
2023-03-16T13:39:18.768Z,101449.47
2023-03-16T13:41:56.027Z,101437.28
2023-03-16T13:44:24.293Z,101445.09
2023-03-16T13:46:51.120Z,101447.69
2023-03-16T13:49:18.669Z,101433.63
2023-03-16T13:51:46.919Z,101430.97
2023-03-16T13:54:24.430Z,101442.41
2023-03-16T13:56:52.967Z,101430.16
2023-03-16T13:59:21.484Z,101428.34
2023-03-16T14:01:49.159Z,101428.38
2023-03-16T14:04:18.859Z,101421.34
2023-03-16T14:06:57.416Z,101412.53
2023-03-16T14:09:29.208Z,101409.91
2023-03-16T14:11:57.717Z,101402.00
2023-03-16T14:14:30.821Z,101399.34
2023-03-16T14:17:03.907Z,101408.22
2023-03-16T14:19:36.060Z,101399.44
2023-03-16T14:22:06.637Z,101398.50
2023-03-16T14:24:35.723Z,101395.88
2023-03-16T14:27:14.592Z,101395.91
2023-03-16T14:29:42.813Z,101396.78
2023-03-16T14:32:30.657Z,101397.75
2023-03-16T14:35:04.657Z,101384.47
2023-03-16T14:37:36.322Z,101392.41
2023-03-16T14:40:06.072Z,101378.34
2023-03-16T14:42:33.163Z,101380.09
2023-03-16T14:45:07.678Z,101384.50
2023-03-16T14:47:41.103Z,101374.88
2023-03-16T14:50:09.383Z,101371.47
2023-03-16T14:52:36.624Z,101367.06
2023-03-16T14:55:11.800Z,101364.47
2023-03-16T14:57:40.464Z,101366.16
2023-03-16T15:00:10.279Z,101369.66
2023-03-16T15:02:37.081Z,101373.16
2023-03-16T15:05:04.412Z,101362.63
2023-03-16T15:07:33.638Z,101362.59
2023-03-16T15:10:07.758Z,101369.66
2023-03-16T15:12:34.817Z,101367.97
2023-03-16T15:15:17.386Z,101372.31
2023-03-16T15:17:45.662Z,101368.84
2023-03-16T15:20:14.233Z,101362.69
2023-03-16T15:22:41.739Z,101365.34
2023-03-16T15:25:24.882Z,101353.94
2023-03-16T15:27:52.743Z,101361.84
2023-03-16T15:30:29.080Z,101357.44
2023-03-16T15:32:56.102Z,101364.47
2023-03-16T15:35:23.221Z,101354.84
2023-03-16T15:37:49.867Z,101350.47
2023-03-16T15:40:19.965Z,101353.97
2023-03-16T15:42:47.075Z,101349.56
2023-03-16T15:45:17.610Z,101346.09
2023-03-16T15:47:44.934Z,101337.31
2023-03-16T15:50:13.774Z,101356.59
2023-03-16T15:52:45.644Z,101342.56
2023-03-16T15:55:35.498Z,101345.19
2023-03-16T15:58:05.259Z,101349.56
2023-03-16T16:00:37.490Z,101337.25
2023-03-16T16:03:05.708Z,101343.41
2023-03-16T16:05:32.562Z,101335.50
2023-03-16T16:07:59.472Z,101331.13
2023-03-16T16:10:27.039Z,101324.97
2023-03-16T16:12:54.913Z,101329.38
2023-03-16T16:15:28.915Z,101334.59
2023-03-16T16:18:19.356Z,101328.44
2023-03-16T16:20:42.683Z,101331.91
2023-03-16T16:23:10.416Z,101341.47
2023-03-16T16:25:40.322Z,101339.75
2023-03-16T16:28:16.656Z,101337.13
2023-03-16T16:30:43.991Z,101336.19
2023-03-16T16:33:30.433Z,101334.44
2023-03-16T16:35:59.274Z,101334.41
2023-03-16T16:38:26.124Z,101331.69
2023-03-16T16:40:54.099Z,101329.03
2023-03-16T16:43:43.048Z,101323.72
2023-03-16T16:46:22.588Z,101334.13
2023-03-16T16:48:54.323Z,101330.66
2023-03-16T16:51:23.359Z,101324.44
2023-03-16T16:53:51.594Z,101321.75
2023-03-16T16:56:22.833Z,101319.03
2023-03-16T16:58:49.489Z,101319.81
2023-03-16T17:01:22.197Z,101320.63
2023-03-16T17:03:48.828Z,101317.03
2023-03-16T17:06:17.685Z,101315.38
2023-03-16T17:08:45.662Z,101320.53
2023-03-16T17:11:19.969Z,101325.88
2023-03-16T17:13:47.484Z,101317.84
2023-03-16T17:16:18.641Z,101325.75
2023-03-16T17:18:45.803Z,101324.84
2023-03-16T17:21:17.238Z,101326.47
2023-03-16T17:23:44.642Z,101317.84
2023-03-16T17:26:21.765Z,101327.28
2023-03-16T17:28:52.993Z,101325.44
2023-03-16T17:31:22.792Z,101331.47
2023-03-16T17:33:51.409Z,101339.31
2023-03-16T17:36:21.434Z,101338.31
2023-03-16T17:38:48.569Z,101332.44
2023-03-16T17:41:27.006Z,101335.84
2023-03-16T17:43:57.936Z,101341.00
2023-03-16T17:46:29.564Z,101329.66
2023-03-16T17:48:56.552Z,101350.72
2023-03-16T17:51:25.585Z,101338.44
2023-03-16T17:53:52.682Z,101338.28
2023-03-16T17:56:26.508Z,101343.53
2023-03-16T17:58:57.153Z,101345.28
2023-03-16T18:01:34.392Z,101334.78
2023-03-16T18:04:02.049Z,101330.41
2023-03-16T18:06:29.952Z,101333.06
2023-03-16T18:08:57.437Z,101331.22
2023-03-16T18:11:36.068Z,101331.47
2023-03-16T18:14:04.854Z,101327.81
2023-03-16T18:16:31.542Z,101326.94
2023-03-16T18:19:05.919Z,101336.56
2023-03-16T18:21:33.455Z,101335.66
2023-03-16T18:24:00.175Z,101329.47
2023-03-16T18:26:27.790Z,101329.44
2023-03-16T18:28:55.513Z,101315.56
2023-03-16T18:31:24.963Z,101319.66
2023-03-16T18:33:55.601Z,101308.38
2023-03-16T18:36:36.295Z,101305.66
2023-03-16T18:39:05.793Z,101316.84
2023-03-16T18:41:34.469Z,101308.22
2023-03-16T18:44:05.699Z,101310.72
2023-03-16T18:46:36.552Z,101314.94
2023-03-16T18:49:05.060Z,101311.50
2023-03-16T18:51:32.035Z,101314.28
2023-03-16T18:53:58.869Z,101309.94
2023-03-16T18:56:27.684Z,101297.72
2023-03-16T18:58:56.193Z,101296.75
2023-03-16T19:01:26.517Z,101309.09
2023-03-16T19:03:54.024Z,101309.06
2023-03-16T19:06:26.676Z,101312.44
2023-03-16T19:08:53.735Z,101302.94
2023-03-16T19:11:20.525Z,101297.72
2023-03-16T19:13:47.141Z,101296.94
2023-03-16T19:16:18.353Z,101297.78
2023-03-16T19:18:45.588Z,101305.47
2023-03-16T19:21:22.996Z,101304.81
2023-03-16T19:23:59.187Z,101308.19
2023-03-16T19:26:26.038Z,101304.78
2023-03-16T19:28:52.760Z,101310.81
2023-03-16T19:31:22.019Z,101296.78
2023-03-16T19:33:49.466Z,101298.56
2023-03-16T19:36:19.659Z,101292.28
2023-03-16T19:38:50.260Z,101308.19
2023-03-16T19:41:29.217Z,101293.25
2023-03-16T19:43:59.840Z,101296.78
2023-03-16T19:46:27.791Z,101291.50
2023-03-16T19:48:55.036Z,101296.56
2023-03-16T19:51:22.283Z,101288.59
2023-03-16T19:53:48.895Z,101287.69
2023-03-16T19:56:18.338Z,101270.25
2023-03-16T19:58:50.657Z,101259.78
2023-03-16T20:01:23.255Z,101258.88
2023-03-16T20:03:50.722Z,101260.75
2023-03-16T20:06:22.396Z,101268.53
2023-03-16T20:08:50.474Z,101275.59
2023-03-16T20:11:31.626Z,101274.63
2023-03-16T20:13:59.349Z,101267.81
2023-03-16T20:16:29.066Z,101266.84
2023-03-16T20:18:59.069Z,101276.41
2023-03-16T20:21:26.599Z,101284.28
2023-03-16T20:23:53.422Z,101272.16
2023-03-16T20:26:23.052Z,101273.84
2023-03-16T20:28:50.438Z,101271.25
2023-03-16T20:31:23.230Z,101276.47
2023-03-16T20:33:52.249Z,101276.34
2023-03-16T20:36:20.012Z,101275.66
2023-03-16T20:38:46.682Z,101274.69
2023-03-16T20:41:22.774Z,101282.47
2023-03-16T20:43:50.574Z,101280.81
2023-03-16T20:46:21.172Z,101285.94
2023-03-16T20:48:48.432Z,101281.66
2023-03-16T20:51:25.037Z,101283.28
2023-03-16T20:53:55.054Z,101282.47
2023-03-16T20:56:23.731Z,101285.03
2023-03-16T20:58:53.614Z,101277.13
2023-03-16T21:01:21.688Z,101280.50
2023-03-16T21:03:50.318Z,101277.09
2023-03-16T21:06:30.029Z,101268.41
2023-03-16T21:09:00.405Z,101257.06
2023-03-16T21:11:35.215Z,101252.69
2023-03-16T21:14:02.371Z,101244.06
2023-03-16T21:16:29.312Z,101242.13
2023-03-16T21:18:56.077Z,101241.44
2023-03-16T21:21:22.794Z,101236.97
2023-03-16T21:23:49.704Z,101255.41
2023-03-16T21:26:21.633Z,101240.56
2023-03-16T21:28:56.709Z,101227.44
2023-03-16T21:31:26.038Z,101224.84
2023-03-16T21:33:54.411Z,101223.13
2023-03-16T21:36:23.585Z,101219.63
2023-03-16T21:38:51.612Z,101206.44
2023-03-16T21:41:19.751Z,101199.44
2023-03-16T21:43:47.306Z,101187.25
2023-03-16T21:46:22.882Z,101188.91
2023-03-16T21:48:51.337Z,101193.34
2023-03-16T21:51:20.378Z,101195.00
2023-03-16T21:53:49.019Z,101195.78
2023-03-16T21:56:18.595Z,101193.16
2023-03-16T21:58:46.378Z,101191.19
2023-03-16T22:01:38.252Z,101179.75
2023-03-16T22:04:14.251Z,101185.81
2023-03-16T22:06:43.074Z,101182.44
2023-03-16T22:09:19.047Z,101186.78
2023-03-16T22:11:45.991Z,101191.09
2023-03-16T22:14:12.699Z,101184.97
2023-03-16T22:16:43.480Z,101170.91
2023-03-16T22:19:14.898Z,101175.28
2023-03-16T22:21:43.774Z,101175.25
2023-03-16T22:24:23.506Z,101156.06
2023-03-16T22:26:51.073Z,101148.16
2023-03-16T22:29:23.960Z,101149.03
2023-03-16T22:31:54.018Z,101144.59
2023-03-16T22:34:27.028Z,101152.31
2023-03-16T22:36:55.071Z,101150.47
2023-03-16T22:39:21.666Z,101159.00
2023-03-16T22:41:49.729Z,101157.13
2023-03-16T22:44:22.685Z,101159.56
2023-03-16T22:46:50.296Z,101149.91
2023-03-16T22:49:26.182Z,101148.88
2023-03-16T22:51:58.586Z,101147.09
2023-03-16T22:54:27.552Z,101144.53
2023-03-16T22:56:54.607Z,101147.00
2023-03-16T22:59:23.467Z,101137.25
2023-03-16T23:01:50.400Z,101124.91
2023-03-16T23:04:25.032Z,101125.09
2023-03-16T23:06:53.833Z,101126.81
2023-03-16T23:09:23.063Z,101131.34
2023-03-16T23:11:54.672Z,101130.44
2023-03-16T23:14:24.151Z,101136.56
2023-03-16T23:16:55.292Z,101143.22
2023-03-16T23:19:34.221Z,101139.75
2023-03-16T23:22:03.585Z,101139.81
2023-03-16T23:24:31.680Z,101143.19
2023-03-16T23:26:59.956Z,101140.31
2023-03-16T23:29:27.172Z,101142.09
2023-03-16T23:31:54.800Z,101134.22
2023-03-16T23:34:23.896Z,101131.47
2023-03-16T23:36:51.372Z,101122.00
2023-03-16T23:39:19.087Z,101122.88
2023-03-16T23:41:48.444Z,101129.09
2023-03-16T23:44:21.495Z,101127.09
2023-03-16T23:46:48.229Z,101126.25
2023-03-16T23:49:22.213Z,101113.97
2023-03-16T23:51:49.579Z,101118.25
2023-03-16T23:54:23.256Z,101114.63
2023-03-16T23:56:50.676Z,101118.09
2023-03-16T23:59:17.690Z,101114.28
